createdAt,value
2023-01-09T00:01:50.942Z,1.20
2023-01-09T00:04:17.606Z,0.88
2023-01-09T00:06:46.329Z,0.95
2023-01-09T00:09:12.699Z,0.82
2023-01-09T00:11:38.984Z,1.02
2023-01-09T00:14:05.231Z,0.80
2023-01-09T00:16:31.579Z,1.20
2023-01-09T00:18:57.885Z,1.73
2023-01-09T00:21:24.123Z,1.15
2023-01-09T00:23:53.110Z,0.93
2023-01-09T00:26:19.767Z,0.70
2023-01-09T00:28:46.787Z,0.93
2023-01-09T00:31:13.811Z,0.98
2023-01-09T00:33:52.632Z,1.25
2023-01-09T00:36:18.895Z,0.93
2023-01-09T00:38:45.203Z,0.77
2023-01-09T00:41:12.989Z,1.10
2023-01-09T00:43:42.872Z,0.85
2023-01-09T00:46:09.590Z,0.90
2023-01-09T00:48:38.148Z,1.23
2023-01-09T00:51:04.553Z,1.13
2023-01-09T00:53:32.331Z,1.23
2023-01-09T00:56:00.199Z,1.00
2023-01-09T00:58:26.789Z,1.05
2023-01-09T01:00:53.225Z,1.10
2023-01-09T01:03:19.631Z,0.90
2023-01-09T01:06:04.549Z,1.55
2023-01-09T01:08:30.839Z,1.23
2023-01-09T01:10:57.231Z,1.05
2023-01-09T01:13:23.553Z,0.93
2023-01-09T01:15:49.872Z,1.25
2023-01-09T01:18:16.395Z,1.40
2023-01-09T01:20:43.680Z,1.30
2023-01-09T01:23:10.251Z,1.17
2023-01-09T01:25:40.894Z,1.17
2023-01-09T01:28:07.608Z,1.20
2023-01-09T01:30:37.375Z,1.30
2023-01-09T01:33:03.707Z,1.63
2023-01-09T01:35:29.998Z,1.40
2023-01-09T01:37:56.302Z,1.50
2023-01-09T01:40:22.623Z,1.50
2023-01-09T01:42:50.055Z,1.30
2023-01-09T01:45:19.398Z,1.58
2023-01-09T01:47:48.761Z,1.67
2023-01-09T01:50:27.339Z,2.13
2023-01-09T01:53:12.711Z,1.65
2023-01-09T01:55:41.234Z,1.95
2023-01-09T01:58:09.243Z,2.17
2023-01-09T02:00:38.030Z,1.90
2023-01-09T02:03:06.020Z,2.13
2023-01-09T02:05:33.210Z,2.38
2023-01-09T02:07:59.516Z,1.70
2023-01-09T02:10:25.796Z,2.05
2023-01-09T02:12:52.050Z,2.60
2023-01-09T02:15:19.152Z,2.58
2023-01-09T02:18:00.032Z,2.80
2023-01-09T02:20:38.231Z,2.88
2023-01-09T02:23:04.543Z,2.95
2023-01-09T02:25:49.878Z,3.20
2023-01-09T02:28:16.115Z,3.60
2023-01-09T02:30:48.932Z,3.83
2023-01-09T02:33:15.245Z,4.07
2023-01-09T02:35:59.570Z,4.38
2023-01-09T02:38:35.734Z,4.28
2023-01-09T02:41:04.358Z,4.40
2023-01-09T02:43:31.616Z,4.35
2023-01-09T02:45:57.955Z,4.22
2023-01-09T02:48:24.336Z,4.07
2023-01-09T02:51:05.844Z,4.13
2023-01-09T02:53:44.845Z,4.65
2023-01-09T02:56:33.527Z,4.03
2023-01-09T02:59:09.687Z,3.45
2023-01-09T03:01:44.762Z,3.55
2023-01-09T03:04:34.004Z,4.10
2023-01-09T03:07:03.289Z,3.65
2023-01-09T03:09:31.805Z,3.78
2023-01-09T03:12:07.581Z,3.60
2023-01-09T03:14:34.762Z,3.90
2023-01-09T03:17:03.839Z,3.33
2023-01-09T03:19:31.538Z,3.58
2023-01-09T03:21:58.473Z,3.85
2023-01-09T03:24:24.732Z,4.05
2023-01-09T03:26:51.189Z,4.18
2023-01-09T03:29:17.536Z,4.20
2023-01-09T03:31:43.859Z,4.63
2023-01-09T03:34:10.214Z,3.35
2023-01-09T03:36:36.489Z,3.30
2023-01-09T03:39:02.755Z,3.70
2023-01-09T03:41:29.069Z,3.13
2023-01-09T03:43:55.386Z,3.63
2023-01-09T03:46:21.664Z,3.50
2023-01-09T03:48:48.448Z,3.58
2023-01-09T03:51:14.710Z,3.33
2023-01-09T03:53:41.093Z,3.50
2023-01-09T03:56:07.543Z,3.55
2023-01-09T03:58:33.863Z,3.42
2023-01-09T04:01:01.094Z,2.80
2023-01-09T04:03:27.439Z,3.13
2023-01-09T04:05:53.912Z,3.63
2023-01-09T04:08:20.198Z,3.45
2023-01-09T04:10:46.890Z,3.30
2023-01-09T04:13:13.580Z,3.25
2023-01-09T04:15:39.892Z,3.63
2023-01-09T04:18:06.411Z,3.17
2023-01-09T04:20:33.066Z,3.35
2023-01-09T04:22:59.753Z,3.08
2023-01-09T04:25:26.640Z,2.63
2023-01-09T04:27:52.941Z,2.55
2023-01-09T04:30:19.673Z,3.42
2023-01-09T04:32:45.988Z,2.88
2023-01-09T04:35:12.524Z,2.60
2023-01-09T04:37:39.028Z,3.85
2023-01-09T04:40:09.330Z,2.40
2023-01-09T04:42:35.734Z,2.50
2023-01-09T04:45:02.126Z,3.33
2023-01-09T04:47:28.386Z,2.65
2023-01-09T04:49:54.616Z,2.00
2023-01-09T04:52:20.996Z,3.00
2023-01-09T04:54:47.303Z,2.67
2023-01-09T04:57:14.020Z,2.60
2023-01-09T04:59:40.363Z,2.10
2023-01-09T05:02:07.252Z,2.38
2023-01-09T05:04:34.031Z,2.67
2023-01-09T05:07:00.305Z,2.00
2023-01-09T05:09:26.551Z,1.92
2023-01-09T05:11:52.800Z,2.10
2023-01-09T05:14:19.153Z,2.15
2023-01-09T05:16:45.490Z,2.03
2023-01-09T05:19:11.926Z,1.60
2023-01-09T05:21:38.399Z,2.88
2023-01-09T05:24:04.751Z,2.05
2023-01-09T05:26:31.752Z,2.35
2023-01-09T05:28:58.011Z,1.67
2023-01-09T05:31:25.348Z,2.10
2023-01-09T05:33:51.970Z,1.83
2023-01-09T05:36:18.295Z,2.22
2023-01-09T05:38:44.699Z,1.80
2023-01-09T05:41:11.216Z,1.70
2023-01-09T05:43:37.470Z,1.83
2023-01-09T05:46:03.945Z,1.98
2023-01-09T05:48:30.286Z,1.95
2023-01-09T05:50:56.544Z,1.70
2023-01-09T05:53:22.841Z,1.63
2023-01-09T05:55:49.099Z,1.92
2023-01-09T05:58:15.535Z,1.73
2023-01-09T06:00:41.832Z,2.00
2023-01-09T06:03:08.158Z,1.80
2023-01-09T06:05:34.528Z,1.65
2023-01-09T06:08:00.871Z,1.98
2023-01-09T06:10:27.752Z,1.73
2023-01-09T06:12:54.673Z,1.67
2023-01-09T06:15:20.959Z,2.33
2023-01-09T06:17:47.624Z,1.98
2023-01-09T06:20:13.963Z,1.45
2023-01-09T06:22:40.286Z,1.50
2023-01-09T06:25:06.828Z,1.83
2023-01-09T06:27:33.109Z,1.77
2023-01-09T06:29:59.360Z,2.40
2023-01-09T06:32:25.611Z,1.63
2023-01-09T06:34:51.903Z,1.67
2023-01-09T06:37:18.221Z,2.13
2023-01-09T06:39:44.518Z,2.58
2023-01-09T06:42:10.828Z,1.88
2023-01-09T06:44:37.211Z,2.30
2023-01-09T06:47:03.938Z,2.47
2023-01-09T06:49:30.186Z,2.00
2023-01-09T06:51:56.429Z,1.77
2023-01-09T06:54:23.274Z,2.03
2023-01-09T06:56:49.650Z,2.28
2023-01-09T06:59:15.928Z,2.05
2023-01-09T07:01:42.993Z,2.30
2023-01-09T07:04:13.796Z,1.80
2023-01-09T07:06:40.190Z,2.03
2023-01-09T07:09:06.578Z,2.10
2023-01-09T07:11:33.178Z,2.85
2023-01-09T07:13:59.792Z,2.20
2023-01-09T07:16:26.125Z,2.00
2023-01-09T07:18:52.865Z,2.22
2023-01-09T07:21:19.180Z,2.55
2023-01-09T07:23:45.503Z,2.20
2023-01-09T07:26:11.810Z,2.00
2023-01-09T07:28:38.317Z,2.35
2023-01-09T07:31:07.401Z,2.40
2023-01-09T07:33:35.522Z,2.63
2023-01-09T07:36:01.934Z,2.70
2023-01-09T07:38:28.253Z,2.58
2023-01-09T07:40:54.731Z,2.58
2023-01-09T07:43:21.015Z,2.55
2023-01-09T07:45:47.539Z,2.83
2023-01-09T07:48:14.028Z,2.83
2023-01-09T07:50:40.355Z,3.00
2023-01-09T07:53:06.694Z,3.05
2023-01-09T07:55:33.008Z,3.58
2023-01-09T07:57:59.333Z,4.03
2023-01-09T08:00:25.661Z,3.03
2023-01-09T08:02:53.411Z,3.88
2023-01-09T08:05:20.076Z,4.13
2023-01-09T08:07:46.607Z,4.05
2023-01-09T08:10:13.005Z,3.53
2023-01-09T08:12:42.926Z,3.28
2023-01-09T08:15:09.410Z,2.92
2023-01-09T08:17:35.912Z,3.10
2023-01-09T08:20:02.425Z,2.83
2023-01-09T08:22:28.708Z,3.22
2023-01-09T08:24:54.983Z,3.38
2023-01-09T08:27:21.315Z,3.15
2023-01-09T08:29:47.969Z,2.30
2023-01-09T08:32:14.429Z,2.67
2023-01-09T08:34:40.831Z,3.30
2023-01-09T08:37:07.193Z,1.98
2023-01-09T08:39:33.591Z,2.75
2023-01-09T08:42:18.580Z,2.10
2023-01-09T08:45:03.330Z,1.97
2023-01-09T08:47:33.335Z,1.80
2023-01-09T08:50:00.290Z,2.45
2023-01-09T08:52:26.644Z,1.98
2023-01-09T08:54:53.267Z,1.65
2023-01-09T08:57:19.693Z,1.85
2023-01-09T08:59:46.131Z,1.55
2023-01-09T09:02:12.465Z,1.90
2023-01-09T09:04:38.897Z,1.75
2023-01-09T09:07:05.263Z,1.50
2023-01-09T09:09:31.559Z,2.22
2023-01-09T09:11:57.870Z,2.10
2023-01-09T09:14:43.357Z,1.40
2023-01-09T09:17:09.664Z,1.50
2023-01-09T09:19:36.027Z,1.20
2023-01-09T09:22:02.376Z,1.33
2023-01-09T09:24:28.714Z,1.58
2023-01-09T09:26:54.983Z,1.60
2023-01-09T09:29:21.726Z,1.67
2023-01-09T09:31:48.099Z,1.65
2023-01-09T09:34:14.491Z,1.02
2023-01-09T09:36:40.807Z,1.80
2023-01-09T09:39:09.431Z,1.38
2023-01-09T09:42:03.603Z,1.70
2023-01-09T09:44:52.748Z,1.02
2023-01-09T09:47:19.611Z,1.02
2023-01-09T09:49:48.940Z,1.23
2023-01-09T09:52:38.594Z,1.17
2023-01-09T09:55:25.211Z,0.47
2023-01-09T09:57:52.086Z,0.60
2023-01-09T10:00:19.739Z,0.70
2023-01-09T10:02:50.444Z,1.40
2023-01-09T10:05:30.830Z,0.75
2023-01-09T10:08:11.592Z,1.00
2023-01-09T10:10:48.200Z,1.27
2023-01-09T10:13:35.594Z,1.77
2023-01-09T10:16:14.826Z,1.83
2023-01-09T10:18:47.203Z,1.10
2023-01-09T10:21:39.783Z,1.33
2023-01-09T10:24:15.311Z,1.67
2023-01-09T10:29:25.827Z,2.10
2023-01-09T10:31:58.178Z,1.95
2023-01-09T10:34:24.563Z,1.77
2023-01-09T10:36:59.182Z,1.60
2023-01-09T10:39:28.211Z,2.23
2023-01-09T10:42:01.407Z,3.22
2023-01-09T10:44:35.952Z,1.70
2023-01-09T10:47:04.168Z,2.83
2023-01-09T10:49:30.540Z,2.53
2023-01-09T10:51:56.843Z,1.73
2023-01-09T10:54:25.801Z,1.35
2023-01-09T10:56:58.214Z,1.55
2023-01-09T10:59:24.757Z,1.92
2023-01-09T11:01:51.394Z,1.10
2023-01-09T11:04:24.687Z,1.15
2023-01-09T11:06:54.973Z,1.17
2023-01-09T11:09:21.357Z,0.90
2023-01-09T11:11:47.699Z,0.85
2023-01-09T11:14:18.205Z,1.83
2023-01-09T11:16:52.091Z,1.00
2023-01-09T11:19:18.502Z,1.38
2023-01-09T11:21:44.897Z,1.25
2023-01-09T11:24:23.861Z,1.25
2023-01-09T11:26:51.217Z,1.63
2023-01-09T11:29:19.055Z,1.25
2023-01-09T11:31:58.461Z,1.40
2023-01-09T11:34:27.037Z,1.92
2023-01-09T11:36:54.852Z,1.40
2023-01-09T11:39:25.302Z,1.42
2023-01-09T11:41:59.279Z,1.42
2023-01-09T11:44:26.085Z,2.00
2023-01-09T11:46:52.484Z,2.80
2023-01-09T11:49:36.623Z,1.83
2023-01-09T11:52:16.903Z,1.83
2023-01-09T11:55:04.340Z,1.70
2023-01-09T11:57:30.991Z,1.80
2023-01-09T11:59:59.508Z,2.03
2023-01-09T12:02:44.753Z,1.90
2023-01-09T12:05:31.601Z,2.10
2023-01-09T12:08:05.939Z,1.77
2023-01-09T12:10:35.249Z,2.53
2023-01-09T12:13:06.860Z,2.90
2023-01-09T12:15:36.799Z,2.58
2023-01-09T12:18:12.325Z,2.78
2023-01-09T12:23:05.197Z,2.03
2023-01-09T12:25:31.605Z,2.10
2023-01-09T12:27:57.875Z,2.08
2023-01-09T12:30:43.747Z,2.45
2023-01-09T12:33:12.861Z,1.98
2023-01-09T12:35:58.092Z,1.48
2023-01-09T12:38:25.730Z,1.60
2023-01-09T12:41:10.560Z,2.03
2023-01-09T12:43:46.185Z,1.90
2023-01-09T12:48:57.488Z,1.45
2023-01-09T12:51:36.076Z,1.47
2023-01-09T12:54:02.534Z,1.58
2023-01-09T12:56:49.086Z,1.65
2023-01-09T12:59:30.926Z,3.75
2023-01-09T13:02:17.687Z,4.43
2023-01-09T13:04:48.048Z,3.22
2023-01-09T13:07:27.035Z,4.75
2023-01-09T13:09:56.581Z,3.58
2023-01-09T13:12:24.549Z,4.13
2023-01-09T13:15:03.853Z,3.17
2023-01-09T13:17:33.012Z,4.70
2023-01-09T13:19:59.357Z,2.88
2023-01-09T13:22:27.312Z,3.35
2023-01-09T13:25:00.669Z,1.60
2023-01-09T13:27:31.836Z,3.30
2023-01-09T13:30:13.736Z,2.20
2023-01-09T13:32:58.732Z,3.00
2023-01-09T13:35:25.102Z,2.38
2023-01-09T13:37:53.359Z,2.65
2023-01-09T13:40:19.679Z,2.53
2023-01-09T13:43:16.614Z,2.40
2023-01-09T13:45:43.144Z,2.13
2023-01-09T13:48:10.860Z,3.60
2023-01-09T13:50:38.076Z,1.73
2023-01-09T13:53:19.597Z,2.42
2023-01-09T13:55:58.655Z,1.88
2023-01-09T13:58:31.889Z,2.15
2023-01-09T14:00:59.641Z,2.42
2023-01-09T14:03:32.605Z,2.10
2023-01-09T14:05:59.037Z,3.97
2023-01-09T14:08:29.190Z,2.35
2023-01-09T14:11:00.885Z,3.42
2023-01-09T14:13:31.410Z,3.33
2023-01-09T14:16:13.643Z,3.65
2023-01-09T14:18:45.831Z,2.38
2023-01-09T14:21:12.583Z,4.68
2023-01-09T14:23:51.431Z,2.80
2023-01-09T14:26:19.154Z,1.95
2023-01-09T14:28:45.487Z,2.25
2023-01-09T14:31:26.095Z,5.22
2023-01-09T14:34:23.246Z,6.50
2023-01-09T14:36:58.849Z,4.30
2023-01-09T14:39:25.698Z,5.00
2023-01-09T14:42:06.338Z,4.45
2023-01-09T14:44:38.491Z,5.38
2023-01-09T14:47:11.211Z,2.60
2023-01-09T14:49:40.780Z,7.28
2023-01-09T14:52:15.666Z,5.03
2023-01-09T14:54:43.647Z,15.18
2023-01-09T14:57:26.002Z,8.35
2023-01-09T14:59:59.980Z,7.75
2023-01-09T15:02:31.141Z,5.05
2023-01-09T15:04:59.620Z,4.47
2023-01-09T15:07:30.909Z,5.90
2023-01-09T15:09:59.810Z,7.22
2023-01-09T15:12:26.219Z,7.68
2023-01-09T15:14:54.761Z,5.47
2023-01-09T15:17:24.615Z,3.08
2023-01-09T15:19:51.077Z,4.03
2023-01-09T15:22:27.580Z,4.03
2023-01-09T15:24:53.963Z,3.30
2023-01-09T15:27:22.010Z,2.00
2023-01-09T15:29:48.603Z,2.40
2023-01-09T15:32:25.847Z,2.15
2023-01-09T15:34:53.886Z,1.75
2023-01-09T15:37:31.226Z,2.33
2023-01-09T15:39:59.379Z,2.17
2023-01-09T15:42:45.735Z,1.88
2023-01-09T15:45:20.784Z,2.33
2023-01-09T15:47:47.072Z,3.50
2023-01-09T15:50:14.924Z,2.58
2023-01-09T15:52:41.804Z,2.47
2023-01-09T15:55:40.821Z,3.00
2023-01-09T15:58:25.364Z,2.60
2023-01-09T16:01:00.107Z,3.00
2023-01-09T16:03:26.790Z,2.35
2023-01-09T16:05:57.865Z,1.90
2023-01-09T16:08:29.592Z,1.98
2023-01-09T16:10:57.874Z,2.53
2023-01-09T16:13:25.276Z,4.32
2023-01-09T16:15:52.243Z,3.50
2023-01-09T16:18:18.508Z,2.88
2023-01-09T16:20:44.994Z,2.45
2023-01-09T16:23:21.758Z,2.47
2023-01-09T16:25:48.095Z,3.03
2023-01-09T16:30:51.048Z,2.60
2023-01-09T16:33:22.234Z,1.67
2023-01-09T16:35:49.053Z,2.67
2023-01-09T16:38:15.384Z,2.55
2023-01-09T16:41:21.726Z,2.03
2023-01-09T16:43:48.292Z,4.35
2023-01-09T16:46:15.938Z,10.38
2023-01-09T16:48:42.366Z,7.03
2023-01-09T16:51:16.731Z,5.63
2023-01-09T16:53:43.746Z,4.47
2023-01-09T16:56:26.433Z,4.95
2023-01-09T16:58:54.598Z,3.63
2023-01-09T17:01:24.014Z,2.97
2023-01-09T17:03:50.991Z,3.58
2023-01-09T17:06:31.154Z,2.70
2023-01-09T17:08:57.795Z,3.05
2023-01-09T17:11:31.326Z,3.90
2023-01-09T17:13:58.117Z,7.20
2023-01-09T17:16:24.608Z,2.33
2023-01-09T17:18:50.979Z,2.30
2023-01-09T17:21:18.688Z,3.30
2023-01-09T17:23:45.218Z,6.05
2023-01-09T17:26:35.014Z,14.77
2023-01-09T17:29:01.379Z,5.05
2023-01-09T17:31:27.788Z,4.10
2023-01-09T17:33:54.122Z,2.53
2023-01-09T17:36:26.316Z,3.15
2023-01-09T17:38:54.965Z,2.05
2023-01-09T17:41:23.410Z,1.88
2023-01-09T17:43:49.871Z,2.10
2023-01-09T17:46:18.160Z,2.00
2023-01-09T17:48:44.476Z,5.55
2023-01-09T17:51:10.833Z,4.03
2023-01-09T17:53:37.185Z,2.35
2023-01-09T17:56:06.937Z,2.90
2023-01-09T17:58:33.228Z,2.30
2023-01-09T18:00:59.932Z,2.58
2023-01-09T18:03:33.156Z,3.67
2023-01-09T18:05:59.718Z,3.67
2023-01-09T18:08:26.010Z,2.53
2023-01-09T18:10:52.778Z,2.80
2023-01-09T18:13:19.069Z,3.22
2023-01-09T18:15:46.060Z,2.40
2023-01-09T18:18:13.378Z,3.22
2023-01-09T18:20:40.443Z,3.10
2023-01-09T18:23:08.587Z,3.88
2023-01-09T18:25:35.466Z,3.30
2023-01-09T18:28:03.204Z,3.42
2023-01-09T18:30:31.012Z,3.65
2023-01-09T18:32:57.431Z,2.92
2023-01-09T18:35:23.713Z,2.90
2023-01-09T18:37:50.129Z,3.47
2023-01-09T18:40:16.480Z,3.13
2023-01-09T18:42:43.567Z,2.60
2023-01-09T18:45:10.064Z,3.10
2023-01-09T18:47:36.377Z,2.53
2023-01-09T18:50:02.879Z,2.25
2023-01-09T18:52:29.347Z,3.42
2023-01-09T18:54:55.667Z,2.75
2023-01-09T18:57:22.097Z,2.70
2023-01-09T18:59:48.396Z,3.22
2023-01-09T19:02:24.926Z,2.92
2023-01-09T19:04:51.251Z,3.10
2023-01-09T19:07:17.766Z,3.35
2023-01-09T19:09:45.022Z,2.85
2023-01-09T19:12:11.416Z,2.40
2023-01-09T19:14:37.880Z,1.85
2023-01-09T19:17:04.620Z,2.15
2023-01-09T19:19:31.429Z,2.30
2023-01-09T19:21:58.304Z,2.13
2023-01-09T19:24:24.919Z,1.88
2023-01-09T19:26:51.763Z,1.88
2023-01-09T19:29:18.301Z,2.20
2023-01-09T19:31:46.630Z,1.90
2023-01-09T19:34:13.452Z,2.05
2023-01-09T19:36:39.949Z,1.98
2023-01-09T19:39:07.247Z,2.42
2023-01-09T19:41:33.706Z,2.60
2023-01-09T19:44:00.156Z,2.20
2023-01-09T19:46:27.010Z,3.03
2023-01-09T19:48:53.446Z,3.03
2023-01-09T19:51:20.532Z,2.70
2023-01-09T19:53:53.960Z,3.20
2023-01-09T19:56:21.670Z,2.30
2023-01-09T19:58:58.314Z,2.80
2023-01-09T20:01:35.264Z,2.42
2023-01-09T20:04:04.842Z,2.80
2023-01-09T20:06:31.348Z,3.15
2023-01-09T20:08:59.135Z,2.97
2023-01-09T20:11:27.773Z,2.92
2023-01-09T20:13:55.596Z,3.45
2023-01-09T20:16:23.128Z,2.95
2023-01-09T20:18:49.473Z,3.88
2023-01-09T20:23:49.609Z,3.88
2023-01-09T20:26:17.007Z,2.42
2023-01-09T20:28:44.525Z,3.10
2023-01-09T20:31:11.607Z,4.28
2023-01-09T20:33:37.901Z,2.47
2023-01-09T20:36:04.801Z,3.55
2023-01-09T20:38:31.582Z,3.13
2023-01-09T20:40:58.033Z,2.90
2023-01-09T20:43:24.632Z,2.58
2023-01-09T20:45:51.087Z,3.10
2023-01-09T20:48:17.517Z,2.10
2023-01-09T20:50:43.887Z,2.47
2023-01-09T20:53:10.142Z,2.47
2023-01-09T20:55:36.418Z,3.70
2023-01-09T20:58:02.857Z,2.53
2023-01-09T21:00:32.038Z,3.08
2023-01-09T21:02:59.207Z,3.10
2023-01-09T21:05:25.739Z,2.78
2023-01-09T21:07:52.210Z,2.28
2023-01-09T21:10:18.541Z,2.53
2023-01-09T21:12:44.872Z,2.50
2023-01-09T21:15:15.133Z,2.63
2023-01-09T21:17:41.582Z,2.70
2023-01-09T21:20:10.000Z,2.85
2023-01-09T21:22:36.555Z,2.88
2023-01-09T21:25:03.313Z,4.55
2023-01-09T21:27:40.195Z,3.08
2023-01-09T21:30:07.626Z,3.10
2023-01-09T21:32:34.106Z,2.83
2023-01-09T21:35:04.263Z,2.50
2023-01-09T21:37:31.744Z,2.47
2023-01-09T21:39:57.996Z,3.05
2023-01-09T21:42:43.041Z,2.55
2023-01-09T21:45:34.790Z,3.13
2023-01-09T21:48:04.722Z,2.63
2023-01-09T21:50:31.323Z,3.10
2023-01-09T21:52:57.732Z,2.45
2023-01-09T21:55:24.045Z,3.00
2023-01-09T21:57:53.750Z,3.22
2023-01-09T22:00:20.119Z,2.95
2023-01-09T22:02:46.359Z,3.25
2023-01-09T22:05:12.669Z,2.80
2023-01-09T22:07:38.917Z,2.47
2023-01-09T22:10:05.510Z,2.40
2023-01-09T22:12:31.817Z,3.20
2023-01-09T22:14:58.124Z,2.60
2023-01-09T22:17:24.439Z,2.97
2023-01-09T22:19:50.945Z,2.38
2023-01-09T22:22:17.243Z,3.28
2023-01-09T22:24:44.145Z,3.22
2023-01-09T22:27:10.588Z,2.80
2023-01-09T22:29:36.852Z,2.60
2023-01-09T22:32:03.322Z,3.45
2023-01-09T22:34:30.820Z,2.80
2023-01-09T22:36:57.158Z,3.13
2023-01-09T22:39:23.517Z,3.28
2023-01-09T22:41:51.303Z,2.55
2023-01-09T22:44:18.018Z,3.80
2023-01-09T22:46:44.512Z,2.50
2023-01-09T22:49:12.313Z,3.15
2023-01-09T22:51:38.696Z,3.17
2023-01-09T22:54:04.967Z,2.65
2023-01-09T22:56:32.255Z,2.47
2023-01-09T22:59:00.719Z,2.30
2023-01-09T23:01:27.186Z,3.70
2023-01-09T23:03:53.441Z,2.80
2023-01-09T23:06:20.824Z,2.33
2023-01-09T23:08:47.979Z,2.63
2023-01-09T23:11:15.947Z,2.80
2023-01-09T23:13:42.295Z,2.75
2023-01-09T23:16:08.669Z,2.25
2023-01-09T23:18:35.073Z,2.38
2023-01-09T23:21:03.403Z,2.13
2023-01-09T23:23:30.664Z,3.88
2023-01-09T23:25:58.002Z,3.10
2023-01-09T23:28:24.757Z,3.17
2023-01-09T23:30:51.100Z,2.47
2023-01-09T23:33:17.602Z,2.28
2023-01-09T23:35:44.382Z,3.17
2023-01-09T23:38:11.660Z,3.20
2023-01-09T23:40:39.002Z,2.38
2023-01-09T23:43:11.366Z,1.90
2023-01-09T23:45:38.774Z,2.50
2023-01-09T23:48:05.752Z,2.72
2023-01-09T23:50:32.269Z,2.30
2023-01-09T23:52:58.712Z,2.15
2023-01-09T23:55:25.618Z,2.33
2023-01-09T23:57:54.446Z,2.33
